LOWS/SZG METAR and TAF weather

Enter ICAO airport designator
Station Type Date Time Source
LOWS METAR 2019/12/06 08:50 UTC NOAA

LOWS 060850Z VRB02KT 1500 R15/1100U R33/1300U FZBCFG BR FEW003 BKN300 M03/M03 Q1021 R15/29//95 BECMG 5000


Station Type Date Time Source
LOWS Decoded METAR 2019/12/06 08:50 UTC NOAA

Salzburg-Flughafen, Austria (LOWS) 47-48N 013-00E 450M
Dec 06, 2019 - 03:50 AM EST / 2019.12.06 0850 UTC
Wind: Variable at 2 MPH (2 KT):0
Visibility: less than 1 mile:0
Sky conditions: mostly cloudy
Weather: freezing patches of fog; mist
Temperature: 26 F (-3 C)
Dew Point: 26 F (-3 C)
Relative Humidity: 100%
Pressure (altimeter): 30.15 in. Hg (1021 hPa)
ob: LOWS 060850Z VRB02KT 1500 R15/1100U R33/1300U FZBCFG BR FEW003 BKN300 M03/M03 Q1021 R15/29//95 BECMG 5000
cycle: 9

Station Type Date Time Source
LOWS TAF 2019/12/06 09:09 UTC NOAA

TAF TAF
AMD LOWS 060903Z 0609/0706 30002KT 5000 BR FEW003 BKN300 TX06/0613Z TNM02/0704Z
TEMPO 0609/0611 VRB01KT 1500 FZBCFG SCT003 BKN300
BECMG 0611/0613 CAVOK
BECMG 0617/0619 15005KT PROB30
TEMPO 0619/0702 VRB01KT 2500 BR NSC
BECMG 0702/0704 9999 SCT060 BKN100 PROB30
TEMPO 0704/0706 29005KT -FZRA BKN060

Example: see airport list